Time;durP1;ratioP1;P1;durP2;ratioP2;P2;SDS_P1;SDS_P2;PMS_P1;PMS_P2;Temp;Humidity;BMP_temperature;BMP_pressure;BME280_temperature;BME280_humidity;BME280_pressure;Samples;Min_cycle;Max_cycle;Signal;HPM_P1;HPM_P2
2020/12/16 00:01:38;;;;;;;17.00;12.70;;;10.70;99.90;;;;;;5072353;28;20174;-84
2020/12/16 00:04:04;;;;;;;19.50;12.90;;;10.30;99.90;;;;;;5080588;28;20584;-90
2020/12/16 00:06:29;;;;;;;21.70;14.90;;;10.30;99.90;;;;;;5087227;28;20221;-85
2020/12/16 00:08:55;;;;;;;22.40;13.77;;;10.60;99.90;;;;;;5080715;28;20179;-84
2020/12/16 00:11:21;;;;;;;19.17;13.97;;;10.30;99.90;;;;;;5083237;28;20534;-87
2020/12/16 00:13:47;;;;;;;19.70;12.97;;;10.30;99.90;;;;;;5082142;28;20409;-88
2020/12/16 00:16:12;;;;;;;20.23;13.73;;;10.30;99.90;;;;;;5081386;28;20182;-85
2020/12/16 00:18:38;;;;;;;18.77;12.77;;;10.30;99.90;;;;;;5064648;28;20256;-84
2020/12/16 00:21:04;;;;;;;19.00;14.03;;;10.30;99.90;;;;;;5065990;28;20253;-86
2020/12/16 00:23:30;;;;;;;20.07;12.87;;;10.40;99.90;;;;;;5081220;28;20181;-86
2020/12/16 00:25:56;;;;;;;18.93;12.40;;;10.30;99.90;;;;;;5081735;28;20175;-90
2020/12/16 00:28:22;;;;;;;20.50;14.60;;;10.60;99.90;;;;;;5073326;28;20554;-84
2020/12/16 00:30:50;;;;;;;20.73;13.70;;;10.50;99.90;;;;;;5074909;28;20663;-87
2020/12/16 00:33:17;;;;;;;22.97;14.77;;;10.50;99.90;;;;;;5072802;28;20779;-85
2020/12/16 00:35:44;;;;;;;25.57;17.17;;;10.80;99.90;;;;;;5079416;28;20771;-88
2020/12/16 00:38:11;;;;;;;19.93;13.90;;;10.20;99.90;;;;;;5073436;28;20417;-86
2020/12/16 00:40:37;;;;;;;17.60;13.07;;;10.40;99.90;;;;;;5066616;28;20411;-89
2020/12/16 00:43:02;;;;;;;17.40;11.80;;;10.30;99.90;;;;;;5074226;28;20791;-87
2020/12/16 00:45:28;;;;;;;18.77;13.10;;;10.50;99.90;;;;;;5081195;28;20410;-86
2020/12/16 00:47:54;;;;;;;23.90;15.97;;;10.30;99.90;;;;;;5083693;28;20206;-85
2020/12/16 00:50:19;;;;;;;20.07;14.30;;;10.40;99.90;;;;;;5079247;28;20834;-84
2020/12/16 00:52:45;;;;;;;21.10;13.10;;;10.30;99.90;;;;;;5084109;28;20604;-87
2020/12/16 00:55:12;;;;;;;26.53;15.87;;;10.50;99.90;;;;;;5084090;28;20166;-84
2020/12/16 00:57:37;;;;;;;23.67;15.07;;;10.50;99.90;;;;;;5068480;28;20181;-85
2020/12/16 01:00:08;;;;;;;21.53;14.43;;;10.50;99.90;;;;;;5090182;28;20878;-84
2020/12/16 01:02:37;;;;;;;23.90;14.33;;;10.30;99.90;;;;;;5080107;28;20175;-85
2020/12/16 01:05:03;;;;;;;23.73;14.40;;;10.60;99.90;;;;;;5071590;28;20423;-88
2020/12/16 01:07:28;;;;;;;19.10;13.50;;;10.60;99.90;;;;;;5072887;28;20474;-88
2020/12/16 01:09:54;;;;;;;17.83;12.13;;;11.10;99.90;;;;;;5063849;28;20176;-86
2020/12/16 01:12:20;;;;;;;18.67;12.30;;;10.70;99.90;;;;;;5080845;28;20174;-88
2020/12/16 01:14:45;;;;;;;23.30;14.83;;;10.70;99.90;;;;;;5070789;28;20409;-86
2020/12/16 01:17:11;;;;;;;20.63;15.07;;;10.40;99.90;;;;;;5092698;28;20177;-85
2020/12/16 01:19:37;;;;;;;17.77;12.20;;;10.40;99.90;;;;;;5074593;28;20182;-87
2020/12/16 01:22:02;;;;;;;25.60;14.30;;;10.20;99.90;;;;;;5074873;28;20168;-85
2020/12/16 01:24:28;;;;;;;24.83;13.67;;;10.40;99.90;;;;;;5074674;28;20548;-84
2020/12/16 01:26:54;;;;;;;18.73;11.97;;;10.70;99.90;;;;;;5077928;28;20202;-85
2020/12/16 01:29:20;;;;;;;22.60;14.47;;;10.70;99.90;;;;;;5072718;28;20264;-84
2020/12/16 01:31:48;;;;;;;17.87;11.37;;;10.70;99.90;;;;;;5072686;28;20926;-83
2020/12/16 01:34:19;;;;;;;18.20;12.80;;;10.50;99.90;;;;;;5072554;28;20225;-86
2020/12/16 01:36:46;;;;;;;15.70;11.70;;;10.30;99.90;;;;;;5072643;28;20500;-85
2020/12/16 01:39:12;;;;;;;15.63;11.57;;;10.30;99.90;;;;;;5072693;28;20412;-88
2020/12/16 01:41:46;;;;;;;19.27;11.77;;;10.40;99.90;;;;;;5054320;28;20440;-85
2020/12/16 01:44:13;;;;;;;24.23;14.90;;;10.20;99.90;;;;;;5069627;28;20466;-84
2020/12/16 01:47:05;;;;;;;20.73;13.23;;;10.50;99.90;;;;;;5092341;28;20416;-84
2020/12/16 01:49:31;;;;;;;25.20;15.90;;;10.30;99.90;;;;;;5071530;28;20931;-85
2020/12/16 01:51:59;;;;;;;22.80;15.43;;;10.30;99.90;;;;;;5092319;28;20407;-85
2020/12/16 01:54:25;;;;;;;25.93;15.87;;;10.70;99.90;;;;;;5074053;28;20189;-84
2020/12/16 01:56:56;;;;;;;21.90;14.23;;;10.20;99.90;;;;;;5073990;28;20847;-84
2020/12/16 01:59:22;;;;;;;25.53;14.80;;;10.30;99.90;;;;;;5092554;28;20420;-87
2020/12/16 02:01:52;;;;;;;25.17;16.00;;;10.40;99.90;;;;;;5092560;28;20911;-87
2020/12/16 02:04:28;;;;;;;21.00;13.40;;;10.60;99.90;;;;;;5074537;28;20431;-86
2020/12/16 02:06:57;;;;;;;21.37;13.50;;;10.60;99.90;;;;;;5074080;28;20485;-84
2020/12/16 02:09:24;;;;;;;24.30;16.40;;;10.40;99.90;;;;;;5092255;28;20416;-83
2020/12/16 02:11:50;;;;;;;28.70;16.83;;;10.40;99.90;;;;;;5091742;28;20400;-84
2020/12/16 02:14:16;;;;;;;23.57;15.47;;;10.50;99.90;;;;;;5092449;28;20963;-88
2020/12/16 02:16:42;;;;;;;22.30;14.40;;;10.30;99.90;;;;;;5092461;28;20246;-87
2020/12/16 02:19:09;;;;;;;25.77;14.37;;;10.40;99.90;;;;;;5092413;28;20172;-87
2020/12/16 02:21:35;;;;;;;19.87;12.83;;;10.40;99.90;;;;;;5092626;28;20439;-87
2020/12/16 02:24:08;;;;;;;18.77;13.60;;;10.50;99.90;;;;;;5092425;28;20408;-87
2020/12/16 02:26:41;;;;;;;22.97;14.40;;;10.30;99.90;;;;;;5092139;28;20461;-87
2020/12/16 02:29:08;;;;;;;20.63;14.67;;;10.10;99.90;;;;;;5092548;28;20436;-86
2020/12/16 02:31:38;;;;;;;22.10;14.57;;;10.30;99.90;;;;;;5078705;28;20428;-88
2020/12/16 02:34:05;;;;;;;24.60;15.80;;;10.00;99.90;;;;;;5075744;28;20961;-88
2020/12/16 02:36:31;;;;;;;29.77;18.40;;;10.00;99.90;;;;;;5057825;28;20420;-88
2020/12/16 02:38:57;;;;;;;21.90;15.20;;;9.90;99.90;;;;;;5075530;28;20417;-88
2020/12/16 02:41:23;;;;;;;21.97;16.70;;;10.20;99.90;;;;;;5076757;28;20430;-87
2020/12/16 02:43:50;;;;;;;21.90;15.90;;;9.90;99.90;;;;;;5092706;28;20412;-87
2020/12/16 02:46:16;;;;;;;23.83;15.03;;;9.90;99.90;;;;;;5088450;28;20415;-86
2020/12/16 02:48:42;;;;;;;25.93;16.47;;;10.20;99.90;;;;;;5075632;28;20463;-87
2020/12/16 02:51:07;;;;;;;21.53;14.97;;;9.90;99.90;;;;;;5075799;28;20405;-86
2020/12/16 02:53:33;;;;;;;20.33;14.20;;;10.00;99.90;;;;;;5075789;28;20174;-85
2020/12/16 02:55:59;;;;;;;23.73;14.10;;;9.80;99.90;;;;;;5095600;28;20171;-86
2020/12/16 02:58:24;;;;;;;27.47;15.80;;;10.10;99.90;;;;;;5095970;28;20208;-87
2020/12/16 03:00:50;;;;;;;28.03;16.57;;;9.90;99.90;;;;;;5095851;28;20230;-86
2020/12/16 03:03:16;;;;;;;29.60;17.33;;;10.00;99.90;;;;;;5095806;28;20252;-87
2020/12/16 03:05:42;;;;;;;24.63;14.80;;;9.90;99.90;;;;;;5095425;28;20542;-86
2020/12/16 03:08:10;;;;;;;24.40;16.80;;;10.00;99.90;;;;;;5095716;28;20213;-86
2020/12/16 03:10:36;;;;;;;25.73;17.20;;;9.90;99.90;;;;;;5077223;28;20937;-86
2020/12/16 03:13:03;;;;;;;21.67;15.03;;;9.90;99.90;;;;;;5095519;28;21062;-87
2020/12/16 03:15:28;;;;;;;31.37;16.00;;;10.00;99.90;;;;;;5094367;28;20423;-86
2020/12/16 03:17:54;;;;;;;21.70;12.80;;;10.20;99.90;;;;;;5086493;28;20427;-86
2020/12/16 03:20:19;;;;;;;21.80;14.17;;;10.00;99.90;;;;;;5076318;28;20166;-87
2020/12/16 03:22:45;;;;;;;19.47;13.63;;;10.10;99.90;;;;;;5075514;28;20577;-87
2020/12/16 03:25:10;;;;;;;22.93;13.63;;;10.00;99.90;;;;;;5090562;28;20264;-86
2020/12/16 03:27:38;;;;;;;36.83;17.50;;;10.10;99.90;;;;;;5076981;28;20569;-85
2020/12/16 03:30:04;;;;;;;23.33;14.63;;;10.00;99.90;;;;;;5095514;28;20232;-86
2020/12/16 03:32:30;;;;;;;19.40;13.60;;;10.10;99.90;;;;;;5095215;28;20416;-85
2020/12/16 03:34:56;;;;;;;25.87;15.27;;;10.00;99.90;;;;;;5078435;28;20474;-86
2020/12/16 03:37:21;;;;;;;20.87;14.83;;;10.20;99.90;;;;;;5074829;28;20666;-87
2020/12/16 03:39:47;;;;;;;30.73;16.40;;;10.00;99.90;;;;;;5074745;28;20178;-85
2020/12/16 03:42:13;;;;;;;23.60;13.60;;;10.30;99.90;;;;;;5074442;28;20512;-85
2020/12/16 03:44:38;;;;;;;23.80;15.10;;;10.00;99.90;;;;;;5074025;28;20176;-86
2020/12/16 03:47:04;;;;;;;25.07;16.17;;;10.00;99.90;;;;;;5074813;28;20561;-85
2020/12/16 03:49:29;;;;;;;25.20;16.37;;;10.00;99.90;;;;;;5074975;28;20178;-83
2020/12/16 03:51:56;;;;;;;23.60;15.63;;;10.00;99.90;;;;;;5056624;28;20169;-83
2020/12/16 03:54:22;;;;;;;25.77;17.03;;;10.00;99.90;;;;;;5074554;28;20526;-83
2020/12/16 03:56:48;;;;;;;27.33;15.53;;;10.20;99.90;;;;;;5074107;28;20406;-82
2020/12/16 03:59:14;;;;;;;22.30;15.03;;;9.90;99.90;;;;;;5074385;28;20513;-83
2020/12/16 04:01:40;;;;;;;26.90;15.27;;;9.90;99.90;;;;;;5074237;28;20166;-82
2020/12/16 04:04:06;;;;;;;27.23;17.70;;;10.20;99.90;;;;;;5074252;28;20269;-83
2020/12/16 04:06:31;;;;;;;31.87;16.30;;;9.80;99.90;;;;;;5074048;28;20876;-82
2020/12/16 04:08:57;;;;;;;28.87;16.57;;;9.80;99.90;;;;;;5056147;28;20212;-83
2020/12/16 04:11:23;;;;;;;31.87;18.30;;;9.80;99.90;;;;;;5073840;28;20169;-83
2020/12/16 04:13:48;;;;;;;24.90;16.93;;;9.80;99.90;;;;;;5074118;28;20200;-84
2020/12/16 04:16:21;;;;;;;30.00;17.60;;;9.80;99.90;;;;;;5073998;28;20171;-83
2020/12/16 04:18:47;;;;;;;29.07;17.97;;;9.90;99.90;;;;;;5074063;28;20167;-83
2020/12/16 04:21:14;;;;;;;25.70;16.00;;;9.80;99.90;;;;;;5073983;28;20427;-82
2020/12/16 04:23:40;;;;;;;25.50;16.07;;;9.80;99.90;;;;;;5073825;28;20412;-81
2020/12/16 04:26:06;;;;;;;25.93;16.67;;;10.00;99.90;;;;;;5073480;28;20773;-84
2020/12/16 04:28:33;;;;;;;27.83;16.50;;;9.80;99.90;;;;;;5073684;28;20709;-82
2020/12/16 04:31:00;;;;;;;21.33;13.83;;;10.00;99.90;;;;;;5073785;28;20416;-84
2020/12/16 04:33:26;;;;;;;23.93;14.90;;;9.90;99.90;;;;;;5073758;28;20417;-83
2020/12/16 04:35:51;;;;;;;28.27;15.97;;;10.10;99.90;;;;;;5073678;28;20414;-83
2020/12/16 04:38:17;;;;;;;28.47;15.60;;;9.90;99.90;;;;;;5073642;28;20177;-82
2020/12/16 04:40:43;;;;;;;28.73;17.20;;;10.00;99.90;;;;;;5073217;28;20173;-83
2020/12/16 04:43:17;;;;;;;24.70;15.30;;;9.80;99.90;;;;;;5073423;28;20251;-83
2020/12/16 04:45:43;;;;;;;31.23;16.50;;;9.80;99.90;;;;;;5073568;28;20169;-83
2020/12/16 04:48:09;;;;;;;30.70;16.73;;;9.70;99.90;;;;;;5073369;28;20872;-83
2020/12/16 04:50:36;;;;;;;29.90;16.87;;;9.50;99.90;;;;;;5073462;28;20222;-82
2020/12/16 04:53:05;;;;;;;29.77;16.83;;;9.50;99.90;;;;;;5073382;28;20416;-83
2020/12/16 04:55:31;;;;;;;30.83;17.50;;;9.70;99.90;;;;;;5072511;28;20500;-83
2020/12/16 04:58:00;;;;;;;30.57;16.70;;;9.60;99.90;;;;;;5073294;28;20439;-83
2020/12/16 05:00:26;;;;;;;33.40;19.13;;;9.50;99.90;;;;;;5075418;28;20507;-83
2020/12/16 05:02:55;;;;;;;26.70;17.57;;;9.50;99.90;;;;;;5078154;28;20420;-82
2020/12/16 05:05:22;;;;;;;28.23;18.07;;;9.50;99.90;;;;;;5073001;28;20510;-83
2020/12/16 05:07:48;;;;;;;30.30;17.57;;;9.50;99.90;;;;;;5073161;28;20467;-83
2020/12/16 05:10:35;;;;;;;31.13;17.50;;;9.60;99.90;;;;;;5054872;28;20411;-83
2020/12/16 05:13:09;;;;;;;29.40;18.47;;;9.70;99.90;;;;;;5054311;28;20472;-83
2020/12/16 05:15:36;;;;;;;26.43;16.07;;;9.60;99.90;;;;;;5073127;28;20909;-83
2020/12/16 05:18:12;;;;;;;31.33;20.07;;;9.60;99.90;;;;;;5073002;28;20424;-83
2020/12/16 05:20:40;;;;;;;34.03;18.80;;;9.60;99.90;;;;;;5073041;28;20400;-82
2020/12/16 05:23:07;;;;;;;31.30;17.50;;;9.60;99.90;;;;;;5084057;28;20423;-83
2020/12/16 05:25:33;;;;;;;29.70;20.53;;;9.90;99.90;;;;;;5072886;28;20750;-83
2020/12/16 05:28:00;;;;;;;33.63;17.30;;;9.70;99.90;;;;;;5092112;28;20640;-83
2020/12/16 05:30:26;;;;;;;33.60;19.77;;;9.70;99.90;;;;;;5068395;28;20474;-82
2020/12/16 05:32:53;;;;;;;34.03;20.83;;;9.70;99.90;;;;;;5072953;28;20430;-82
2020/12/16 05:35:34;;;;;;;30.47;16.43;;;9.80;99.90;;;;;;5072831;28;20405;-82
2020/12/16 05:37:59;;;;;;;33.63;18.57;;;9.60;99.90;;;;;;5073251;28;20431;-82
2020/12/16 05:40:25;;;;;;;30.77;16.17;;;9.60;99.90;;;;;;5072655;28;20415;-84
2020/12/16 05:42:51;;;;;;;29.73;17.97;;;9.70;99.90;;;;;;5072776;28;20175;-82
2020/12/16 05:45:21;;;;;;;35.20;20.60;;;9.60;99.90;;;;;;5072831;28;20200;-83
2020/12/16 05:48:02;;;;;;;31.17;18.33;;;9.60;99.90;;;;;;5072710;28;20201;-82
2020/12/16 05:50:32;;;;;;;36.47;19.20;;;9.50;99.90;;;;;;5072765;28;20910;-83
2020/12/16 05:53:12;;;;;;;30.63;18.30;;;9.60;99.90;;;;;;5072727;28;20416;-83
2020/12/16 05:55:38;;;;;;;29.47;16.83;;;9.50;99.90;;;;;;5072527;28;20409;-83
2020/12/16 05:58:08;;;;;;;38.03;19.83;;;9.50;99.90;;;;;;5072476;28;20437;-82
2020/12/16 06:00:51;;;;;;;30.97;17.67;;;9.60;99.90;;;;;;5072669;28;20163;-84
2020/12/16 06:03:27;;;;;;;35.63;20.23;;;9.50;99.90;;;;;;5054673;28;20423;-83
2020/12/16 06:06:04;;;;;;;35.67;16.70;;;9.50;99.90;;;;;;5072421;28;20541;-83
2020/12/16 06:08:39;;;;;;;32.37;18.10;;;9.70;99.90;;;;;;5076483;28;20471;-83
2020/12/16 06:11:06;;;;;;;35.80;17.47;;;9.50;99.90;;;;;;5076018;28;20835;-84
2020/12/16 06:13:32;;;;;;;33.07;19.60;;;9.40;99.90;;;;;;5076326;28;20426;-83
2020/12/16 06:16:01;;;;;;;34.53;18.37;;;9.40;99.90;;;;;;5076259;28;20456;-85
2020/12/16 06:18:32;;;;;;;36.37;18.53;;;9.40;99.90;;;;;;5058687;28;20416;-85
2020/12/16 06:20:59;;;;;;;37.20;19.37;;;9.60;99.90;;;;;;5076302;28;20913;-84
2020/12/16 06:23:33;;;;;;;39.27;19.03;;;9.40;99.90;;;;;;5058433;28;20416;-85
2020/12/16 06:26:01;;;;;;;29.37;18.40;;;9.40;99.90;;;;;;5074466;28;20930;-84
2020/12/16 06:28:27;;;;;;;34.60;18.80;;;9.40;99.90;;;;;;5075980;28;20467;-84
2020/12/16 06:30:54;;;;;;;31.87;16.60;;;9.40;99.90;;;;;;5076274;28;20458;-83
2020/12/16 06:33:27;;;;;;;36.73;18.60;;;9.60;99.90;;;;;;5075953;28;20411;-85
2020/12/16 06:36:00;;;;;;;36.53;18.20;;;9.50;99.90;;;;;;5076055;28;20408;-83
2020/12/16 06:38:26;;;;;;;35.40;19.33;;;9.40;99.90;;;;;;5075923;28;20430;-84
2020/12/16 06:40:55;;;;;;;34.13;19.57;;;9.30;99.90;;;;;;5075405;28;20973;-85
2020/12/16 06:43:30;;;;;;;37.53;19.73;;;9.30;99.90;;;;;;5075424;28;20439;-85
2020/12/16 06:45:56;;;;;;;36.37;18.87;;;9.20;99.90;;;;;;5075082;28;20776;-86
2020/12/16 06:48:38;;;;;;;38.60;20.83;;;9.20;99.90;;;;;;5075483;28;20501;-86
2020/12/16 06:51:21;;;;;;;40.13;18.67;;;9.20;99.90;;;;;;5075754;28;20419;-86
2020/12/16 06:53:48;;;;;;;39.00;19.23;;;9.20;99.90;;;;;;5075608;28;20773;-86
2020/12/16 06:56:20;;;;;;;42.53;20.00;;;9.30;99.90;;;;;;5075218;28;20527;-85
2020/12/16 06:58:46;;;;;;;45.20;20.80;;;9.10;99.90;;;;;;5075637;28;20409;-87
2020/12/16 07:01:16;;;;;;;38.83;20.67;;;9.30;99.90;;;;;;5075585;28;20423;-85
2020/12/16 07:03:45;;;;;;;41.13;19.60;;;9.00;99.90;;;;;;5075312;28;20400;-86
2020/12/16 07:06:31;;;;;;;36.50;20.50;;;9.00;99.90;;;;;;5075297;28;20490;-86
2020/12/16 07:09:15;;;;;;;36.33;18.83;;;9.00;99.90;;;;;;5075232;28;20506;-86
2020/12/16 07:11:52;;;;;;;35.10;20.50;;;8.90;99.90;;;;;;5074963;28;20409;-87
2020/12/16 07:14:19;;;;;;;46.03;20.13;;;8.80;99.90;;;;;;5075371;28;20429;-85
2020/12/16 07:16:46;;;;;;;39.80;20.50;;;8.80;99.90;;;;;;5075095;28;20396;-86
2020/12/16 07:19:24;;;;;;;43.17;20.00;;;8.80;99.90;;;;;;5074879;28;20464;-85
2020/12/16 07:21:50;;;;;;;37.03;18.27;;;8.80;99.90;;;;;;5075200;28;20491;-86
2020/12/16 07:24:16;;;;;;;42.27;19.97;;;8.80;99.90;;;;;;5075130;28;20457;-86
2020/12/16 07:26:46;;;;;;;44.20;19.47;;;8.90;99.90;;;;;;5081553;28;20194;-86
2020/12/16 07:29:27;;;;;;;41.60;16.87;;;9.00;99.90;;;;;;5092558;28;20458;-85
2020/12/16 07:32:12;;;;;;;30.87;16.50;;;8.50;99.90;;;;;;5095080;28;20902;-86
2020/12/16 07:34:59;;;;;;;37.80;15.50;;;8.50;99.90;;;;;;5089943;28;20461;-86
2020/12/16 07:37:30;;;;;;;33.87;15.43;;;8.50;99.90;;;;;;5056851;28;20430;-86
2020/12/16 07:39:58;;;;;;;27.17;12.53;;;8.50;99.90;;;;;;5074538;28;20753;-86
2020/12/16 07:42:29;;;;;;;28.23;13.73;;;8.40;99.90;;;;;;5074802;28;20403;-86
2020/12/16 07:44:56;;;;;;;27.80;13.57;;;8.60;99.90;;;;;;5074695;28;20903;-86
2020/12/16 07:47:21;;;;;;;21.83;11.63;;;8.50;99.90;;;;;;5056404;28;20635;-86
2020/12/16 07:49:48;;;;;;;30.23;14.90;;;8.50;99.90;;;;;;5085964;28;20423;-88
2020/12/16 07:52:13;;;;;;;32.47;14.63;;;8.30;99.90;;;;;;5094976;28;20600;-85
2020/12/16 07:54:39;;;;;;;37.10;14.80;;;8.30;99.90;;;;;;5094675;28;20438;-86
2020/12/16 07:57:06;;;;;;;42.60;18.03;;;8.20;99.90;;;;;;5093849;28;20176;-87
2020/12/16 07:59:36;;;;;;;37.57;16.63;;;8.30;99.90;;;;;;5094630;28;20410;-87
2020/12/16 08:02:12;;;;;;;33.20;15.93;;;8.20;99.90;;;;;;5094104;28;20445;-86
2020/12/16 08:04:39;;;;;;;41.73;16.77;;;8.20;99.90;;;;;;5082726;28;20423;-87
2020/12/16 08:07:16;;;;;;;38.47;16.80;;;8.20;99.90;;;;;;5074026;28;20997;-87
2020/12/16 08:09:58;;;;;;;42.70;17.87;;;8.30;99.90;;;;;;5073967;28;20447;-87
2020/12/16 08:12:28;;;;;;;42.60;18.20;;;8.30;99.90;;;;;;5073842;28;20797;-87
2020/12/16 08:15:07;;;;;;;41.80;19.33;;;8.30;99.90;;;;;;5074112;28;20396;-86
2020/12/16 08:17:43;;;;;;;44.33;20.17;;;8.30;99.90;;;;;;5074029;28;20427;-86
2020/12/16 08:20:21;;;;;;;51.33;19.40;;;8.20;99.90;;;;;;5074071;28;20407;-88
2020/12/16 08:22:49;;;;;;;78.20;22.63;;;8.30;99.90;;;;;;5056052;28;20423;-87
2020/12/16 08:25:17;;;;;;;53.60;24.47;;;8.60;99.90;;;;;;5072335;28;20848;-87
2020/12/16 08:27:48;;;;;;;39.87;18.20;;;8.40;99.90;;;;;;5073971;28;20508;-87
2020/12/16 08:30:16;;;;;;;45.83;18.80;;;8.50;99.90;;;;;;5073276;28;20408;-86
2020/12/16 08:32:57;;;;;;;39.60;16.90;;;8.40;99.90;;;;;;5073779;28;20510;-87
2020/12/16 08:35:29;;;;;;;38.37;17.67;;;8.30;99.90;;;;;;5073852;28;20818;-85
2020/12/16 08:37:59;;;;;;;45.63;19.40;;;8.30;99.90;;;;;;5073725;28;20426;-87
2020/12/16 08:40:25;;;;;;;43.80;18.50;;;8.30;99.90;;;;;;5073323;28;20440;-87
2020/12/16 08:42:51;;;;;;;55.37;21.10;;;8.40;99.90;;;;;;5073686;28;20841;-87
2020/12/16 08:45:18;;;;;;;58.97;19.13;;;8.20;99.90;;;;;;5055909;28;20419;-87
2020/12/16 08:47:44;;;;;;;73.50;19.50;;;8.20;99.90;;;;;;5073477;28;20291;-87
2020/12/16 08:50:18;;;;;;;48.50;18.67;;;8.20;99.90;;;;;;5073573;28;20442;-86
2020/12/16 08:52:46;;;;;;;55.80;19.47;;;8.20;99.90;;;;;;5073380;28;20165;-83
2020/12/16 08:55:12;;;;;;;68.27;21.60;;;8.10;99.90;;;;;;5072866;28;20435;-87
2020/12/16 08:57:38;;;;;;;44.20;17.50;;;8.00;99.90;;;;;;5073457;28;20461;-87
2020/12/16 09:00:09;;;;;;;68.53;20.47;;;8.00;99.90;;;;;;5073033;28;20189;-86
2020/12/16 09:02:35;;;;;;;53.20;20.30;;;8.20;99.90;;;;;;5072142;28;20177;-85
2020/12/16 09:05:01;;;;;;;61.30;20.37;;;8.00;99.90;;;;;;5073065;28;20408;-85
2020/12/16 09:07:27;;;;;;;65.87;18.77;;;8.10;99.90;;;;;;5072994;28;20216;-85
2020/12/16 09:09:55;;;;;;;65.00;18.20;;;8.00;99.90;;;;;;5072813;28;20165;-85
2020/12/16 09:12:22;;;;;;;57.63;20.27;;;7.90;99.90;;;;;;5072919;28;20435;-84
2020/12/16 09:14:51;;;;;;;46.57;18.30;;;7.90;99.90;;;;;;5054848;28;20419;-85
2020/12/16 09:17:16;;;;;;;50.67;16.53;;;7.90;99.90;;;;;;5071842;28;20422;-85
2020/12/16 09:19:42;;;;;;;48.80;19.00;;;8.10;99.90;;;;;;5054059;28;20427;-85
2020/12/16 09:22:08;;;;;;;42.87;18.17;;;8.00;99.90;;;;;;5055164;28;20209;-86
2020/12/16 09:24:34;;;;;;;44.63;18.50;;;8.00;99.90;;;;;;5072929;28;20173;-85
2020/12/16 09:27:06;;;;;;;49.13;17.80;;;8.30;99.90;;;;;;5072973;28;20215;-85
2020/12/16 09:29:31;;;;;;;57.47;19.50;;;8.30;99.90;;;;;;5073082;28;20177;-86
2020/12/16 09:32:10;;;;;;;78.63;22.13;;;8.80;99.90;;;;;;5072028;28;20415;-86
2020/12/16 09:34:41;;;;;;;52.93;19.33;;;8.40;99.90;;;;;;5073187;28;20168;-85
2020/12/16 09:37:12;;;;;;;82.97;20.23;;;8.40;99.90;;;;;;5055315;28;20407;-85
2020/12/16 09:39:37;;;;;;;84.77;19.17;;;8.50;99.90;;;;;;5072920;28;20416;-82
2020/12/16 09:42:11;;;;;;;79.13;19.57;;;8.40;99.90;;;;;;5076370;28;20460;-82
2020/12/16 09:44:37;;;;;;;60.77;19.57;;;8.50;99.90;;;;;;5077024;28;20434;-83
2020/12/16 09:47:22;;;;;;;45.50;18.13;;;8.60;99.90;;;;;;5076884;28;20403;-83
2020/12/16 09:50:00;;;;;;;48.43;17.37;;;8.70;99.90;;;;;;5058945;28;20223;-82
2020/12/16 09:52:29;;;;;;;41.03;16.00;;;8.60;99.90;;;;;;5076842;28;20414;-82
2020/12/16 09:54:55;;;;;;;49.50;16.50;;;8.70;99.90;;;;;;5076466;28;20407;-83
2020/12/16 09:57:22;;;;;;;37.20;16.07;;;;;;;;;;5076708;28;20411;-83
2020/12/16 09:59:48;;;;;;;43.83;15.73;;;;;;;;;;5076666;28;20431;-83
2020/12/16 10:02:15;;;;;;;53.93;19.50;;;;;;;;;;5076761;28;20403;-83
2020/12/16 10:04:41;;;;;;;32.10;17.50;;;;;;;;;;5076564;28;20399;-83
2020/12/16 10:07:07;;;;;;;44.17;18.83;;;;;;;;;;5076331;28;20451;-83
2020/12/16 10:09:35;;;;;;;44.47;18.70;;;;;;;;;;5076487;28;20427;-85
2020/12/16 10:12:02;;;;;;;35.73;17.83;;;;;;;;;;5076451;28;20418;-84
2020/12/16 10:14:28;;;;;;;37.47;16.20;;;;;;;;;;5076680;28;20418;-83
2020/12/16 10:16:54;;;;;;;35.13;17.63;;;;;;;;;;5059385;28;20413;-84
2020/12/16 10:19:20;;;;;;;43.80;18.90;;;;;;;;;;5076949;28;20420;-83
2020/12/16 10:21:47;;;;;;;54.10;18.17;;;;;;;;;;5076317;28;20411;-85
2020/12/16 10:24:13;;;;;;;90.43;19.33;;;;;;;;;;5058109;28;20901;-83
2020/12/16 10:26:39;;;;;;;38.00;17.20;;;;;;;;;;5076477;28;20400;-83
2020/12/16 10:29:05;;;;;;;54.33;18.57;;;;;;;;;;5089200;28;20541;-84
2020/12/16 10:31:31;;;;;;;38.63;15.50;;;;;;;;;;5096236;28;20422;-83
2020/12/16 10:33:57;;;;;;;60.93;19.50;;;8.60;99.90;;;;;;5077730;28;20445;-84
2020/12/16 10:36:22;;;;;;;53.00;19.10;;;8.50;99.90;;;;;;5095913;28;20406;-84
2020/12/16 10:38:48;;;;;;;41.97;16.87;;;8.50;99.90;;;;;;5096052;28;20523;-83
2020/12/16 10:41:14;;;;;;;63.03;20.00;;;8.50;99.90;;;;;;5095581;28;20640;-83
2020/12/16 10:43:39;;;;;;;45.87;17.07;;;8.50;99.90;;;;;;5095938;28;20176;-84
2020/12/16 10:46:09;;;;;;;46.80;18.90;;;8.60;99.90;;;;;;5095952;28;20266;-84
2020/12/16 10:48:35;;;;;;;48.87;18.47;;;8.60;99.90;;;;;;5095835;28;20208;-84
2020/12/16 10:51:01;;;;;;;44.43;19.60;;;8.70;99.90;;;;;;5095959;28;20409;-84
2020/12/16 10:53:27;;;;;;;45.63;18.50;;;8.70;99.90;;;;;;5094881;28;20418;-83
2020/12/16 10:55:54;;;;;;;45.73;20.60;;;8.70;99.90;;;;;;5095448;28;20767;-84
2020/12/16 10:58:19;;;;;;;37.37;19.50;;;8.70;99.90;;;;;;5095713;28;20705;-83
2020/12/16 11:00:45;;;;;;;36.63;18.43;;;8.70;99.90;;;;;;5095635;28;20509;-84
2020/12/16 11:03:11;;;;;;;36.13;19.57;;;8.80;99.90;;;;;;5095584;28;20633;-84
2020/12/16 11:05:36;;;;;;;45.30;21.03;;;9.00;99.90;;;;;;5095386;28;20213;-85
2020/12/16 11:08:02;;;;;;;43.90;22.60;;;9.00;99.90;;;;;;5095367;28;20210;-84
2020/12/16 11:10:28;;;;;;;36.53;21.40;;;9.10;99.90;;;;;;5095027;28;20247;-83
2020/12/16 11:12:53;;;;;;;39.67;21.03;;;9.10;99.90;;;;;;5094161;28;20198;-83
2020/12/16 11:15:19;;;;;;;41.27;19.47;;;9.10;99.90;;;;;;5095302;28;20214;-83
2020/12/16 11:17:44;;;;;;;37.53;19.60;;;9.10;99.90;;;;;;5077300;28;20169;-83
2020/12/16 11:20:10;;;;;;;39.33;19.27;;;9.10;99.90;;;;;;5095237;28;20600;-83
2020/12/16 11:22:37;;;;;;;37.10;22.03;;;9.00;99.90;;;;;;5094557;28;21791;-83
2020/12/16 11:25:04;;;;;;;44.20;20.90;;;8.90;99.90;;;;;;5094622;28;20297;-82
2020/12/16 11:27:29;;;;;;;41.57;21.17;;;8.90;99.90;;;;;;5095034;28;20491;-82
2020/12/16 11:29:55;;;;;;;41.60;21.23;;;8.90;99.90;;;;;;5095402;28;21005;-83
2020/12/16 11:32:21;;;;;;;43.67;21.80;;;9.00;99.90;;;;;;5095026;28;20176;-84
2020/12/16 11:34:46;;;;;;;41.40;21.00;;;9.00;99.90;;;;;;5078003;28;20261;-85
2020/12/16 11:37:14;;;;;;;38.03;19.60;;;8.90;99.90;;;;;;5094972;28;20294;-85
2020/12/16 11:39:40;;;;;;;42.50;20.80;;;8.90;99.90;;;;;;5076225;28;20180;-85
2020/12/16 11:42:07;;;;;;;39.17;19.43;;;9.10;99.90;;;;;;5094873;28;20415;-85
2020/12/16 11:44:33;;;;;;;47.00;20.20;;;9.00;99.90;;;;;;5093502;28;20423;-85
2020/12/16 11:46:58;;;;;;;39.77;19.27;;;9.20;99.90;;;;;;5076483;28;20990;-85
2020/12/16 11:49:25;;;;;;;39.70;18.10;;;9.00;99.90;;;;;;5093440;28;20426;-85
2020/12/16 11:51:50;;;;;;;41.80;20.10;;;9.00;99.90;;;;;;5076423;28;20169;-85
2020/12/16 11:54:17;;;;;;;41.93;19.20;;;9.00;99.90;;;;;;5075929;28;20522;-84
2020/12/16 11:56:42;;;;;;;36.30;19.10;;;9.00;99.90;;;;;;5094504;28;20514;-85
2020/12/16 11:59:08;;;;;;;41.50;21.23;;;9.10;99.90;;;;;;5094447;28;21025;-85
2020/12/16 12:01:34;;;;;;;36.60;18.37;;;9.10;99.90;;;;;;5094434;28;20207;-84
2020/12/16 12:03:59;;;;;;;36.93;19.97;;;9.00;99.90;;;;;;5092117;28;20169;-85
2020/12/16 12:06:27;;;;;;;40.53;22.30;;;9.00;99.90;;;;;;5075752;28;20625;-85
2020/12/16 12:08:52;;;;;;;41.70;22.43;;;9.00;99.90;;;;;;5094124;28;20329;-84
2020/12/16 12:11:18;;;;;;;47.63;19.90;;;9.00;99.90;;;;;;5093708;28;20858;-85
2020/12/16 12:13:45;;;;;;;37.03;17.37;;;8.90;99.90;;;;;;5094127;28;20160;-84
2020/12/16 12:16:12;;;;;;;36.70;17.20;;;8.80;99.90;;;;;;5094177;28;20762;-85
2020/12/16 12:18:41;;;;;;;43.87;17.03;;;8.70;99.90;;;;;;5094188;28;20413;-86
2020/12/16 12:21:08;;;;;;;33.07;14.87;;;8.70;99.90;;;;;;5094129;28;20410;-86
2020/12/16 12:23:34;;;;;;;32.73;12.83;;;8.60;99.90;;;;;;5094023;28;20912;-85
2020/12/16 12:26:01;;;;;;;40.50;16.83;;;8.50;99.90;;;;;;5093576;28;20398;-85
2020/12/16 12:28:27;;;;;;;36.10;16.63;;;8.50;99.90;;;;;;5093847;28;20490;-85
2020/12/16 12:31:08;;;;;;;34.47;16.07;;;8.50;99.90;;;;;;5049313;28;20513;-84
2020/12/16 12:33:33;;;;;;;36.73;17.70;;;8.50;99.90;;;;;;5093813;28;20544;-85
2020/12/16 12:35:59;;;;;;;34.37;17.70;;;8.50;99.90;;;;;;5093910;28;20181;-85
2020/12/16 12:38:25;;;;;;;38.87;17.20;;;8.50;99.90;;;;;;5093774;28;20179;-85
2020/12/16 12:40:51;;;;;;;33.07;14.83;;;8.50;99.90;;;;;;5093443;28;20687;-84
2020/12/16 12:43:16;;;;;;;38.60;17.20;;;8.60;99.90;;;;;;5093550;28;20410;-85